createdAt,value
2019-03-28T00:02:25.468Z,103491.09
2019-03-28T00:05:17.836Z,103492.19
2019-03-28T00:08:12.391Z,103501.42
2019-03-28T00:11:03.791Z,103498.34
2019-03-28T00:13:56.613Z,103500.72
2019-03-28T00:16:49.491Z,103497.67
2019-03-28T00:19:42.995Z,103489.48
2019-03-28T00:22:53.830Z,103489.88
2019-03-28T00:25:46.990Z,103484.16
2019-03-28T00:28:39.459Z,103489.31
2019-03-28T00:31:32.585Z,103492.61
2019-03-28T00:34:25.423Z,103498.09
2019-03-28T00:37:18.288Z,103493.20
2019-03-28T00:40:10.481Z,103490.64
2019-03-28T00:43:03.084Z,103486.30
2019-03-28T00:45:56.207Z,103495.41
2019-03-28T00:48:48.462Z,103487.34
2019-03-28T00:51:43.120Z,103487.66
2019-03-28T00:54:35.825Z,103486.70
2019-03-28T00:57:28.016Z,103481.68
2019-03-28T01:00:20.624Z,103476.63
2019-03-28T01:03:13.110Z,103474.64
2019-03-28T01:06:05.749Z,103478.62
2019-03-28T01:08:58.357Z,103472.50
2019-03-28T01:11:50.550Z,103475.95
2019-03-28T01:14:43.130Z,103471.48
2019-03-28T01:17:35.602Z,103467.30
2019-03-28T01:20:28.450Z,103470.99
2019-03-28T01:23:21.156Z,103472.72
2019-03-28T01:26:14.591Z,103464.76
2019-03-28T01:29:07.040Z,103466.43
2019-03-28T01:31:59.479Z,103461.48
2019-03-28T01:34:51.616Z,103458.25
2019-03-28T01:37:43.730Z,103459.23
2019-03-28T01:40:36.147Z,103461.58
2019-03-28T01:43:28.312Z,103455.97
2019-03-28T01:46:21.140Z,103452.41
2019-03-28T01:49:13.347Z,103442.43
2019-03-28T01:52:05.808Z,103449.95
2019-03-28T01:54:57.964Z,103455.30
2019-03-28T01:57:50.021Z,103454.47
2019-03-28T02:00:42.418Z,103452.92
2019-03-28T02:03:34.749Z,103459.65
2019-03-28T02:06:26.823Z,103459.49
2019-03-28T02:09:19.023Z,103463.37
2019-03-28T02:12:11.584Z,103465.95
2019-03-28T02:15:04.262Z,103465.53
2019-03-28T02:17:57.388Z,103466.91
2019-03-28T02:20:49.934Z,103471.53
2019-03-28T02:23:43.792Z,103468.98
2019-03-28T02:26:35.930Z,103474.63
2019-03-28T02:29:28.116Z,103475.45
2019-03-28T02:32:20.504Z,103469.16
2019-03-28T02:35:12.760Z,103474.83
2019-03-28T02:38:05.030Z,103470.05
2019-03-28T02:40:57.312Z,103473.17
2019-03-28T02:43:49.440Z,103475.88
2019-03-28T02:46:41.817Z,103479.60
2019-03-28T02:49:33.977Z,103464.19
2019-03-28T02:52:26.098Z,103468.56
2019-03-28T02:55:18.321Z,103472.98
2019-03-28T02:58:11.142Z,103470.70
2019-03-28T03:01:04.233Z,103477.09
2019-03-28T03:03:57.296Z,103472.30
2019-03-28T03:06:49.625Z,103470.59
2019-03-28T03:09:42.683Z,103466.96
2019-03-28T03:12:34.783Z,103464.53
2019-03-28T03:15:27.219Z,103469.90
2019-03-28T03:18:21.523Z,103462.91
2019-03-28T03:21:13.896Z,103470.10
2019-03-28T03:24:06.601Z,103461.13
2019-03-28T03:26:59.019Z,103464.27
2019-03-28T03:29:51.482Z,103458.38
2019-03-28T03:32:44.068Z,103457.44
2019-03-28T03:35:37.214Z,103455.30
2019-03-28T03:38:29.711Z,103458.78
2019-03-28T03:41:22.792Z,103458.07
2019-03-28T03:44:16.091Z,103455.78
2019-03-28T03:47:08.724Z,103464.02
2019-03-28T03:50:01.045Z,103465.40
2019-03-28T03:52:54.124Z,103466.11
2019-03-28T03:55:48.395Z,103461.80
2019-03-28T03:58:40.919Z,103462.86
2019-03-28T04:01:33.942Z,103465.51
2019-03-28T04:04:26.512Z,103464.88
2019-03-28T04:07:19.019Z,103462.33
2019-03-28T04:10:11.586Z,103464.38
2019-03-28T04:13:04.579Z,103464.34
2019-03-28T04:15:57.182Z,103466.67
2019-03-28T04:18:49.353Z,103468.84
2019-03-28T04:21:41.892Z,103458.37
2019-03-28T04:24:34.918Z,103463.98
2019-03-28T04:27:27.332Z,103456.09
2019-03-28T04:30:20.392Z,103464.36
2019-03-28T04:33:12.680Z,103456.51
2019-03-28T04:36:05.234Z,103451.99
2019-03-28T04:38:57.536Z,103452.47
2019-03-28T04:41:51.033Z,103452.55
2019-03-28T04:44:43.427Z,103451.99
2019-03-28T04:47:36.276Z,103454.79
2019-03-28T04:50:28.829Z,103456.70
2019-03-28T04:53:20.965Z,103459.97
2019-03-28T04:56:13.306Z,103458.45
2019-03-28T04:59:05.791Z,103461.00
2019-03-28T05:02:03.040Z,103463.46
2019-03-28T05:04:52.285Z,103461.63
2019-03-28T05:07:44.896Z,103461.15
2019-03-28T05:10:37.628Z,103458.56
2019-03-28T05:13:30.071Z,103464.11
2019-03-28T05:16:23.314Z,103459.59
2019-03-28T05:19:15.944Z,103467.50
2019-03-28T05:22:08.244Z,103470.14
2019-03-28T05:25:00.824Z,103471.89
2019-03-28T05:27:53.119Z,103473.00
2019-03-28T05:30:45.300Z,103475.30
2019-03-28T05:33:38.806Z,103483.14
2019-03-28T05:36:31.203Z,103486.42
2019-03-28T05:39:23.644Z,103490.41
2019-03-28T05:42:15.912Z,103488.64
2019-03-28T05:45:09.768Z,103490.45
2019-03-28T05:48:01.919Z,103496.01
2019-03-28T05:50:53.990Z,103501.88
2019-03-28T05:53:46.565Z,103506.34
2019-03-28T05:56:39.299Z,103507.24
2019-03-28T05:59:31.927Z,103510.53
2019-03-28T06:02:24.636Z,103512.94
2019-03-28T06:05:17.190Z,103519.48
2019-03-28T06:08:09.903Z,103522.70
2019-03-28T06:11:02.439Z,103518.90
2019-03-28T06:13:55.065Z,103525.66
2019-03-28T06:16:47.438Z,103528.33
2019-03-28T06:19:39.798Z,103528.23
2019-03-28T06:22:32.035Z,103530.70
2019-03-28T06:25:26.174Z,103529.55
2019-03-28T06:28:18.690Z,103530.94
2019-03-28T06:31:11.135Z,103528.19
2019-03-28T06:34:03.580Z,103528.53
2019-03-28T06:36:55.697Z,103526.00
2019-03-28T06:39:47.955Z,103530.63
2019-03-28T06:42:40.005Z,103539.94
2019-03-28T06:45:32.190Z,103543.31
2019-03-28T06:48:24.627Z,103540.20
2019-03-28T06:51:17.551Z,103543.08
2019-03-28T06:54:09.975Z,103545.83
2019-03-28T06:57:02.347Z,103543.54
2019-03-28T06:59:54.431Z,103547.66
2019-03-28T07:02:47.225Z,103552.52
2019-03-28T07:05:39.384Z,103552.85
2019-03-28T07:08:31.987Z,103545.23
2019-03-28T07:11:24.620Z,103543.10
2019-03-28T07:14:17.001Z,103544.13
2019-03-28T07:17:09.686Z,103552.67
2019-03-28T07:20:02.804Z,103550.30
2019-03-28T07:22:55.704Z,103551.78
2019-03-28T07:25:48.187Z,103553.59
2019-03-28T07:28:40.690Z,103552.63
2019-03-28T07:31:35.336Z,103552.98
2019-03-28T07:34:27.239Z,103555.79
2019-03-28T07:37:19.386Z,103551.20
2019-03-28T07:40:12.040Z,103551.87
2019-03-28T07:43:04.192Z,103555.08
2019-03-28T07:45:56.590Z,103557.97
2019-03-28T07:48:49.196Z,103556.02
2019-03-28T07:51:41.869Z,103555.45
2019-03-28T07:54:34.082Z,103556.16
2019-03-28T07:57:26.484Z,103562.16
2019-03-28T08:00:19.450Z,103555.22
2019-03-28T08:03:12.060Z,103553.75
2019-03-28T08:06:04.315Z,103554.55
2019-03-28T08:08:56.856Z,103557.15
2019-03-28T08:11:49.155Z,103554.76
2019-03-28T08:14:41.498Z,103556.16
2019-03-28T08:17:33.867Z,103555.63
2019-03-28T08:20:27.203Z,103560.33
2019-03-28T08:23:19.499Z,103561.11
2019-03-28T08:26:11.765Z,103556.75
2019-03-28T08:29:04.284Z,103561.76
2019-03-28T08:31:57.311Z,103559.95
2019-03-28T08:34:49.831Z,103560.59
2019-03-28T08:37:43.789Z,103557.88
2019-03-28T08:40:39.831Z,103557.58
2019-03-28T08:43:35.825Z,103557.52
2019-03-28T08:46:26.348Z,103558.71
2019-03-28T08:49:18.864Z,103563.13
2019-03-28T08:52:12.708Z,103573.89
2019-03-28T08:55:05.449Z,103572.82
2019-03-28T08:57:58.693Z,103579.04
2019-03-28T09:00:52.800Z,103577.81
2019-03-28T09:03:44.957Z,103578.87
2019-03-28T09:06:37.743Z,103580.73
2019-03-28T09:09:29.933Z,103580.91
2019-03-28T09:12:22.222Z,103578.69
2019-03-28T09:15:16.860Z,103580.77
2019-03-28T09:18:09.282Z,103582.67
2019-03-28T09:21:01.606Z,103581.65
2019-03-28T09:23:54.100Z,103587.30
2019-03-28T09:26:46.519Z,103583.62
2019-03-28T09:29:39.074Z,103586.00
2019-03-28T09:32:33.028Z,103576.30
2019-03-28T09:35:32.372Z,103570.41
2019-03-28T09:38:24.684Z,103572.92
2019-03-28T09:41:17.201Z,103571.08
2019-03-28T09:44:09.684Z,103570.26
2019-03-28T09:47:01.800Z,103566.94
2019-03-28T09:49:56.063Z,103565.94
2019-03-28T09:52:48.658Z,103560.37
2019-03-28T09:55:40.871Z,103559.54
2019-03-28T09:58:33.929Z,103561.33
2019-03-28T10:01:26.854Z,103553.48
2019-03-28T10:04:19.337Z,103545.06
2019-03-28T10:07:11.750Z,103540.64
2019-03-28T10:10:04.300Z,103538.80
2019-03-28T10:12:56.782Z,103533.64
2019-03-28T10:15:49.048Z,103531.43
2019-03-28T10:18:41.367Z,103532.53
2019-03-28T10:21:33.825Z,103531.30
2019-03-28T10:24:26.109Z,103536.92
2019-03-28T10:27:19.482Z,103533.53
2019-03-28T10:30:14.441Z,103532.85
2019-03-28T10:33:07.020Z,103533.97
2019-03-28T10:35:59.501Z,103527.70
2019-03-28T10:38:52.457Z,103525.84
2019-03-28T10:41:44.912Z,103524.23
2019-03-28T10:44:37.349Z,103525.95
2019-03-28T10:47:29.988Z,103521.65
2019-03-28T10:50:22.664Z,103525.44
2019-03-28T10:53:14.818Z,103517.91
2019-03-28T10:56:20.509Z,103516.39
2019-03-28T10:59:01.256Z,103503.16
2019-03-28T11:01:53.997Z,103502.11
2019-03-28T11:04:46.392Z,103510.36
2019-03-28T11:07:38.634Z,103514.73
2019-03-28T11:10:31.273Z,103513.87
2019-03-28T11:13:23.530Z,103513.79
2019-03-28T11:16:16.102Z,103510.59
2019-03-28T11:19:08.913Z,103499.48
2019-03-28T11:22:01.404Z,103499.48
2019-03-28T11:24:53.533Z,103498.42
2019-03-28T11:27:45.692Z,103492.44
2019-03-28T11:30:38.153Z,103498.03
2019-03-28T11:33:30.662Z,103495.55
2019-03-28T11:36:23.034Z,103503.19
2019-03-28T11:39:15.497Z,103507.08
2019-03-28T11:42:07.814Z,103502.88
2019-03-28T11:45:00.048Z,103501.78
2019-03-28T11:47:52.910Z,103498.68
2019-03-28T11:50:45.355Z,103502.25
2019-03-28T11:53:37.730Z,103498.06
2019-03-28T11:56:30.394Z,103498.14
2019-03-28T11:59:22.798Z,103497.20
2019-03-28T12:02:20.124Z,103501.42
2019-03-28T12:05:09.723Z,103501.03
2019-03-28T12:08:02.205Z,103495.20
2019-03-28T12:10:54.808Z,103497.78
2019-03-28T12:13:47.403Z,103497.81
2019-03-28T12:16:39.844Z,103497.13
2019-03-28T12:19:32.731Z,103502.71
2019-03-28T12:22:25.219Z,103500.64
2019-03-28T12:25:17.724Z,103498.43
2019-03-28T12:28:10.131Z,103494.43
2019-03-28T12:31:02.629Z,103494.33
2019-03-28T12:33:55.070Z,103493.12
2019-03-28T12:36:47.218Z,103484.52
2019-03-28T12:39:39.744Z,103483.31
2019-03-28T12:42:31.928Z,103484.47
2019-03-28T12:45:24.436Z,103484.20
2019-03-28T12:48:16.597Z,103472.33
2019-03-28T12:51:08.832Z,103474.94
2019-03-28T12:54:01.333Z,103465.44
2019-03-28T12:56:54.033Z,103463.42
2019-03-28T12:59:47.059Z,103457.64
2019-03-28T13:02:39.460Z,103452.56
2019-03-28T13:05:34.575Z,103447.63
2019-03-28T13:08:25.968Z,103441.00
2019-03-28T13:11:19.690Z,103444.07
2019-03-28T13:14:12.487Z,103442.66
2019-03-28T13:17:05.845Z,103436.67
2019-03-28T13:19:58.361Z,103433.16
2019-03-28T13:22:52.009Z,103426.58
2019-03-28T13:25:44.507Z,103420.63
2019-03-28T13:28:36.977Z,103419.27
2019-03-28T13:31:30.326Z,103415.20
2019-03-28T13:34:22.574Z,103420.91
2019-03-28T13:37:15.044Z,103423.95
2019-03-28T13:40:09.083Z,103419.63
2019-03-28T13:43:01.455Z,103413.81
2019-03-28T13:45:54.454Z,103412.89
2019-03-28T13:48:47.357Z,103409.21
2019-03-28T13:51:40.539Z,103405.45
2019-03-28T13:54:32.791Z,103405.95
2019-03-28T13:57:25.048Z,103405.50
2019-03-28T14:00:20.687Z,103402.27
2019-03-28T14:03:13.070Z,103405.45
2019-03-28T14:06:06.359Z,103407.17
2019-03-28T14:08:59.366Z,103404.24
2019-03-28T14:11:51.576Z,103410.25
2019-03-28T14:14:43.725Z,103404.06
2019-03-28T14:17:36.735Z,103402.76
2019-03-28T14:20:29.851Z,103401.36
2019-03-28T14:23:22.294Z,103396.19
2019-03-28T14:26:14.625Z,103395.48
2019-03-28T14:29:07.199Z,103400.63
2019-03-28T14:31:59.994Z,103390.71
2019-03-28T14:34:53.171Z,103391.28
2019-03-28T14:37:46.142Z,103392.05
2019-03-28T14:40:38.401Z,103383.27
2019-03-28T14:43:31.004Z,103381.18
2019-03-28T14:46:23.891Z,103377.49
2019-03-28T14:49:16.529Z,103378.72
2019-03-28T14:52:09.012Z,103376.18
2019-03-28T14:55:01.748Z,103376.63
2019-03-28T14:57:54.256Z,103373.34
2019-03-28T15:00:49.879Z,103368.50
2019-03-28T15:03:42.014Z,103368.30
2019-03-28T15:06:34.370Z,103367.67
2019-03-28T15:09:26.720Z,103367.48
2019-03-28T15:12:18.942Z,103355.41
2019-03-28T15:15:11.287Z,103355.63
2019-03-28T15:18:03.943Z,103356.81
2019-03-28T15:20:56.509Z,103352.39
2019-03-28T15:23:48.681Z,103349.64
2019-03-28T15:26:41.080Z,103349.57
2019-03-28T15:29:33.719Z,103344.52
2019-03-28T15:32:26.420Z,103338.41
2019-03-28T15:35:18.832Z,103334.83
2019-03-28T15:38:11.893Z,103333.86
2019-03-28T15:41:04.242Z,103332.34
2019-03-28T15:43:56.650Z,103333.45
2019-03-28T15:46:48.795Z,103333.33
2019-03-28T15:49:41.329Z,103332.03
2019-03-28T15:52:34.332Z,103326.88
2019-03-28T15:55:26.549Z,103327.52
2019-03-28T15:58:23.663Z,103319.45
2019-03-28T16:01:13.349Z,103318.42
2019-03-28T16:04:06.283Z,103316.33
2019-03-28T16:07:00.221Z,103309.81
2019-03-28T16:09:52.581Z,103306.12
2019-03-28T16:12:44.798Z,103302.79
2019-03-28T16:15:37.190Z,103306.04
2019-03-28T16:18:30.268Z,103306.06
2019-03-28T16:21:22.638Z,103305.51
2019-03-28T16:24:14.963Z,103303.06
2019-03-28T16:27:07.518Z,103299.38
2019-03-28T16:30:00.560Z,103297.87
2019-03-28T16:32:54.294Z,103298.36
2019-03-28T16:35:46.660Z,103301.92
2019-03-28T16:38:39.101Z,103303.14
2019-03-28T16:41:31.550Z,103300.84
2019-03-28T16:46:59.177Z,103297.73
2019-03-28T16:49:51.506Z,103295.80
2019-03-28T16:52:43.818Z,103295.80
2019-03-28T16:55:35.981Z,103291.88
2019-03-28T16:58:28.172Z,103292.75
2019-03-28T17:01:20.643Z,103293.36
2019-03-28T17:04:20.623Z,103290.73
2019-03-28T17:07:08.373Z,103293.89
2019-03-28T17:10:01.783Z,103296.42
2019-03-28T17:12:54.700Z,103290.67
2019-03-28T17:15:47.796Z,103291.98
2019-03-28T17:18:41.035Z,103289.84
2019-03-28T17:21:33.091Z,103294.71
2019-03-28T17:24:25.356Z,103292.50
2019-03-28T17:27:17.797Z,103294.81
2019-03-28T17:30:10.683Z,103297.56
2019-03-28T17:33:03.079Z,103289.45
2019-03-28T17:35:55.585Z,103289.81
2019-03-28T17:38:48.073Z,103290.94
2019-03-28T17:41:40.638Z,103290.55
2019-03-28T17:44:33.862Z,103288.52
2019-03-28T17:47:26.647Z,103292.10
2019-03-28T17:50:18.867Z,103291.61
2019-03-28T17:53:11.537Z,103294.22
2019-03-28T17:56:04.694Z,103293.55
2019-03-28T17:58:57.523Z,103300.32
2019-03-28T18:01:51.043Z,103300.55
2019-03-28T18:04:48.099Z,103303.66
2019-03-28T18:07:37.819Z,103307.59
2019-03-28T18:10:29.996Z,103316.61
2019-03-28T18:13:22.489Z,103316.93
2019-03-28T18:16:15.699Z,103320.61
2019-03-28T18:19:08.969Z,103320.82
2019-03-28T18:22:03.809Z,103327.83
2019-03-28T18:24:55.088Z,103330.64
2019-03-28T18:27:47.224Z,103325.91
2019-03-28T18:30:39.614Z,103328.12
2019-03-28T18:33:31.804Z,103330.77
2019-03-28T18:36:24.279Z,103333.80
2019-03-28T18:39:16.673Z,103334.38
2019-03-28T18:42:08.826Z,103339.45
2019-03-28T18:45:01.325Z,103331.34
2019-03-28T18:47:53.785Z,103333.70
2019-03-28T18:50:46.580Z,103336.69
2019-03-28T18:53:38.759Z,103338.58
2019-03-28T18:56:31.238Z,103346.34
2019-03-28T18:59:23.810Z,103350.52
2019-03-28T19:02:16.549Z,103352.89
2019-03-28T19:05:19.564Z,103358.49
2019-03-28T19:08:02.981Z,103359.19
2019-03-28T19:10:55.102Z,103355.48
2019-03-28T19:13:48.448Z,103357.47
2019-03-28T19:16:40.628Z,103362.05
2019-03-28T19:19:39.616Z,103359.67
2019-03-28T19:22:28.696Z,103355.23
2019-03-28T19:25:21.128Z,103353.00
2019-03-28T19:28:13.525Z,103354.09
2019-03-28T19:31:05.847Z,103349.70
2019-03-28T19:33:58.316Z,103352.61
2019-03-28T19:36:51.692Z,103354.88
2019-03-28T19:39:44.083Z,103351.77
2019-03-28T19:42:36.986Z,103349.28
2019-03-28T19:45:40.034Z,103352.61
2019-03-28T19:48:32.422Z,103351.75
2019-03-28T19:51:28.128Z,103353.86
2019-03-28T19:54:18.542Z,103354.35
2019-03-28T19:57:11.069Z,103352.20
2019-03-28T20:00:03.637Z,103353.47
2019-03-28T20:02:55.800Z,103356.47
2019-03-28T20:05:49.371Z,103356.23
2019-03-28T20:08:42.168Z,103352.95
2019-03-28T20:11:34.538Z,103354.16
2019-03-28T20:14:26.647Z,103358.17
2019-03-28T20:17:19.101Z,103361.45
2019-03-28T20:20:11.650Z,103363.87
2019-03-28T20:23:03.833Z,103364.14
2019-03-28T20:25:56.809Z,103358.93
2019-03-28T20:28:50.145Z,103362.73
2019-03-28T20:31:42.787Z,103359.98
2019-03-28T20:34:35.215Z,103360.38
2019-03-28T20:37:27.666Z,103361.31
2019-03-28T20:40:21.013Z,103359.59
2019-03-28T20:43:13.092Z,103363.13
2019-03-28T20:46:05.314Z,103357.12
2019-03-28T20:48:58.880Z,103359.98
2019-03-28T20:51:51.966Z,103358.96
2019-03-28T20:54:44.483Z,103356.06
2019-03-28T20:57:40.205Z,103359.02
2019-03-28T21:00:44.920Z,103359.59
2019-03-28T21:03:37.205Z,103360.06
2019-03-28T21:06:29.568Z,103360.22
2019-03-28T21:09:21.650Z,103362.27
2019-03-28T21:12:13.786Z,103363.09
2019-03-28T21:15:06.194Z,103362.83
2019-03-28T21:17:58.610Z,103365.38
2019-03-28T21:20:50.812Z,103366.52
2019-03-28T21:23:43.079Z,103368.55
2019-03-28T21:26:35.456Z,103363.03
2019-03-28T21:29:28.525Z,103360.81
2019-03-28T21:32:20.793Z,103363.84
2019-03-28T21:35:13.400Z,103367.67
2019-03-28T21:38:05.743Z,103365.23
2019-03-28T21:40:59.535Z,103361.88
2019-03-28T21:43:52.827Z,103367.52
2019-03-28T21:46:45.489Z,103361.53
2019-03-28T21:49:37.612Z,103366.59
2019-03-28T21:52:30.730Z,103363.09
2019-03-28T21:55:23.127Z,103363.41
2019-03-28T21:58:16.015Z,103369.37
2019-03-28T22:01:08.437Z,103373.73
2019-03-28T22:04:00.817Z,103372.14
2019-03-28T22:06:52.956Z,103374.34
2019-03-28T22:09:45.817Z,103377.31
2019-03-28T22:12:38.307Z,103374.38
2019-03-28T22:15:31.141Z,103366.80
2019-03-28T22:18:24.354Z,103370.23
2019-03-28T22:21:16.864Z,103368.17
2019-03-28T22:24:09.071Z,103366.84
2019-03-28T22:27:01.643Z,103368.97
2019-03-28T22:29:53.984Z,103370.16
2019-03-28T22:32:46.611Z,103369.72
2019-03-28T22:35:39.022Z,103365.53
2019-03-28T22:38:31.606Z,103365.73
2019-03-28T22:41:24.608Z,103367.91
2019-03-28T22:44:16.808Z,103366.08
2019-03-28T22:47:09.259Z,103360.47
2019-03-28T22:50:01.624Z,103358.23
2019-03-28T22:52:55.868Z,103356.28
2019-03-28T22:55:48.317Z,103360.06
2019-03-28T22:58:40.769Z,103361.71
2019-03-28T23:01:33.637Z,103354.58
2019-03-28T23:04:26.212Z,103353.44
2019-03-28T23:07:18.620Z,103352.33
2019-03-28T23:10:13.022Z,103349.72
2019-03-28T23:13:05.882Z,103349.80
2019-03-28T23:15:57.968Z,103355.24
2019-03-28T23:18:50.286Z,103350.13
2019-03-28T23:21:42.882Z,103351.08
2019-03-28T23:24:38.895Z,103350.90
2019-03-28T23:27:29.375Z,103354.41
2019-03-28T23:30:21.988Z,103349.72
2019-03-28T23:33:14.911Z,103344.12
2019-03-28T23:36:07.281Z,103340.64
2019-03-28T23:38:59.495Z,103337.08
2019-03-28T23:41:51.853Z,103334.46
2019-03-28T23:44:44.001Z,103336.73
2019-03-28T23:47:36.125Z,103323.52
2019-03-28T23:50:28.604Z,103325.02
2019-03-28T23:53:21.146Z,103324.55
2019-03-28T23:56:13.540Z,103328.23
2019-03-28T23:59:05.598Z,103325.30
